createdAt,value
2018-07-11T00:02:29.144Z,11.60
2018-07-11T00:07:22.271Z,8.67
2018-07-11T00:12:15.301Z,9.33
2018-07-11T00:17:14.817Z,11.13
2018-07-11T00:22:08.010Z,8.40
2018-07-11T00:27:01.161Z,9.70
2018-07-11T00:31:54.404Z,8.30
2018-07-11T00:36:47.454Z,6.47
2018-07-11T00:41:40.548Z,6.87
2018-07-11T00:46:33.676Z,6.10
2018-07-11T00:51:26.805Z,7.87
2018-07-11T00:56:19.832Z,8.70
2018-07-11T01:01:15.007Z,9.83
2018-07-11T01:06:08.348Z,7.67
2018-07-11T01:11:06.936Z,9.20
2018-07-11T01:16:00.040Z,9.07
2018-07-11T01:20:53.069Z,9.53
2018-07-11T01:25:46.136Z,7.63
2018-07-11T01:30:39.229Z,8.53
2018-07-11T01:35:32.213Z,10.27
2018-07-11T01:40:25.621Z,8.33
2018-07-11T01:45:18.697Z,9.30
2018-07-11T01:50:11.824Z,9.30
2018-07-11T01:55:05.049Z,8.67
2018-07-11T01:59:58.091Z,10.77
2018-07-11T02:04:51.175Z,8.80
2018-07-11T02:09:44.292Z,10.00
2018-07-11T02:14:37.920Z,10.20
2018-07-11T02:19:31.082Z,10.10
2018-07-11T02:24:24.346Z,11.33
2018-07-11T02:29:17.484Z,10.63
2018-07-11T02:34:11.198Z,15.13
2018-07-11T02:39:05.068Z,11.77
2018-07-11T02:43:58.160Z,11.73
2018-07-11T02:48:51.301Z,13.20
2018-07-11T02:53:44.356Z,14.27
2018-07-11T02:58:37.417Z,15.63
2018-07-11T03:03:30.481Z,12.53
2018-07-11T03:08:34.089Z,12.50
2018-07-11T03:13:27.109Z,11.97
2018-07-11T03:18:21.234Z,12.87
2018-07-11T03:23:14.341Z,13.10
2018-07-11T03:28:07.401Z,13.13
2018-07-11T03:33:00.496Z,18.70
2018-07-11T03:37:53.519Z,15.23
2018-07-11T03:42:46.743Z,14.57
2018-07-11T03:47:39.790Z,13.37
2018-07-11T03:52:32.868Z,14.50
2018-07-11T03:57:25.937Z,12.03
2018-07-11T04:02:19.453Z,15.07
2018-07-11T04:07:12.538Z,12.63
2018-07-11T04:12:05.566Z,13.80
2018-07-11T04:16:58.594Z,16.43
2018-07-11T04:21:52.021Z,11.33
2018-07-11T04:26:45.141Z,14.53
2018-07-11T04:31:38.271Z,11.07
2018-07-11T04:36:31.398Z,13.43
2018-07-11T04:41:24.411Z,14.53
2018-07-11T04:46:17.494Z,11.53
2018-07-11T04:51:10.816Z,12.20
2018-07-11T04:56:05.202Z,14.03
2018-07-11T05:00:58.474Z,13.27
2018-07-11T05:05:51.603Z,12.40
2018-07-11T05:10:44.743Z,10.73
2018-07-11T05:15:37.776Z,11.67
2018-07-11T05:20:30.828Z,17.17
2018-07-11T05:25:23.848Z,9.80
2018-07-11T05:30:16.890Z,9.83
2018-07-11T05:35:09.992Z,11.40
2018-07-11T05:40:03.028Z,14.97
2018-07-11T05:44:56.496Z,13.10
2018-07-11T05:49:49.632Z,12.03
2018-07-11T05:54:42.750Z,10.30
2018-07-11T05:59:35.819Z,13.10
2018-07-11T06:04:28.880Z,11.20
2018-07-11T06:09:21.995Z,14.17
2018-07-11T06:14:15.152Z,10.57
2018-07-11T06:19:08.364Z,11.47
2018-07-11T06:24:01.399Z,10.20
2018-07-11T06:28:54.406Z,10.33
2018-07-11T06:33:47.731Z,12.77
2018-07-11T06:38:40.775Z,8.70
2018-07-11T06:43:33.893Z,12.90
2018-07-11T06:48:26.958Z,12.10
2018-07-11T06:53:20.029Z,8.13
2018-07-11T06:58:12.955Z,8.63
2018-07-11T07:03:05.996Z,6.37
2018-07-11T07:07:59.168Z,9.20
2018-07-11T07:12:52.262Z,6.13
2018-07-11T07:17:45.443Z,7.33
2018-07-11T07:22:38.553Z,8.07
2018-07-11T07:27:31.599Z,7.07
2018-07-11T07:32:24.718Z,9.87
2018-07-11T07:37:17.818Z,9.30
2018-07-11T07:42:10.801Z,10.27
2018-07-11T07:47:03.851Z,13.27
2018-07-11T07:51:57.345Z,6.77
2018-07-11T07:56:50.841Z,8.57
2018-07-11T08:01:43.892Z,8.57
2018-07-11T08:06:36.933Z,5.23
2018-07-11T08:11:30.009Z,3.77
2018-07-11T08:16:23.232Z,2.90
2018-07-11T08:21:16.344Z,4.57
2018-07-11T08:26:21.337Z,3.07
2018-07-11T08:31:33.426Z,4.27
2018-07-11T08:36:45.264Z,3.73
2018-07-11T08:41:59.267Z,4.43
2018-07-11T08:51:21.117Z,3.60
2018-07-11T08:56:30.360Z,5.60
2018-07-11T09:01:49.856Z,2.73
2018-07-11T09:08:00.489Z,2.93
2018-07-11T09:13:02.856Z,4.43
2018-07-11T09:18:07.852Z,2.47
2018-07-11T09:24:00.965Z,4.17
2018-07-11T09:28:54.071Z,5.00
2018-07-11T09:33:47.049Z,2.53
2018-07-11T09:38:40.067Z,2.40
2018-07-11T09:43:33.376Z,5.90
2018-07-11T09:48:26.463Z,3.40
2018-07-11T09:53:19.542Z,3.07
2018-07-11T09:58:12.582Z,3.53
2018-07-11T10:03:06.342Z,2.97
2018-07-11T10:07:59.673Z,9.33
2018-07-11T10:12:52.773Z,2.40
2018-07-11T10:17:45.855Z,4.77
2018-07-11T10:22:39.213Z,2.37
2018-07-11T10:27:32.259Z,2.77
2018-07-11T10:32:25.516Z,2.40
2018-07-11T10:37:18.671Z,2.10
2018-07-11T10:42:11.727Z,3.13
2018-07-11T10:47:09.892Z,2.57
2018-07-11T10:52:02.872Z,4.40
2018-07-11T10:56:56.107Z,2.70
2018-07-11T11:01:49.182Z,2.50
2018-07-11T11:06:42.227Z,2.20
2018-07-11T11:11:35.377Z,3.00
2018-07-11T11:16:28.365Z,3.13
2018-07-11T11:21:21.552Z,6.73
2018-07-11T11:26:14.575Z,2.43
2018-07-11T11:31:07.728Z,4.47
2018-07-11T11:36:00.948Z,2.43
2018-07-11T11:40:54.044Z,4.97
2018-07-11T11:45:47.321Z,2.47
2018-07-11T11:50:40.353Z,2.73
2018-07-11T11:55:33.507Z,3.03
2018-07-11T12:00:26.572Z,3.10
2018-07-11T12:05:20.277Z,2.77
2018-07-11T12:10:13.572Z,5.50
2018-07-11T12:15:06.744Z,2.77
2018-07-11T12:20:00.058Z,2.60
2018-07-11T12:24:53.399Z,5.70
2018-07-11T12:29:46.722Z,2.60
2018-07-11T12:34:39.769Z,3.90
2018-07-11T12:39:33.404Z,4.17
2018-07-11T12:44:26.503Z,6.00
2018-07-11T12:49:19.737Z,5.90
2018-07-11T12:54:12.825Z,2.90
2018-07-11T12:59:05.934Z,4.07
2018-07-11T13:04:00.090Z,3.17
2018-07-11T13:08:53.248Z,4.57
2018-07-11T13:13:46.368Z,3.07
2018-07-11T13:18:39.457Z,3.67
2018-07-11T13:23:32.484Z,5.20
2018-07-11T13:28:25.684Z,3.10
2018-07-11T13:33:19.359Z,4.27
2018-07-11T13:38:13.384Z,4.63
2018-07-11T13:43:06.566Z,3.63
2018-07-11T13:48:00.653Z,5.30
2018-07-11T13:52:54.412Z,3.17
2018-07-11T13:57:47.585Z,5.07
2018-07-11T14:02:41.548Z,2.73
2018-07-11T14:07:34.725Z,2.90
2018-07-11T14:12:27.796Z,4.47
2018-07-11T14:17:20.864Z,3.00
2018-07-11T14:22:14.088Z,3.13
2018-07-11T14:27:07.189Z,4.13
2018-07-11T14:32:00.853Z,3.90
2018-07-11T14:36:54.061Z,3.67
2018-07-11T14:41:47.088Z,5.33
2018-07-11T14:46:40.129Z,5.10
2018-07-11T14:51:33.865Z,4.30
2018-07-11T14:56:26.900Z,5.40
2018-07-11T15:01:20.441Z,5.07
2018-07-11T15:06:14.458Z,7.50
2018-07-11T15:11:07.584Z,3.93
2018-07-11T15:16:00.661Z,4.43
2018-07-11T15:20:54.391Z,3.87
2018-07-11T15:25:47.452Z,8.57
2018-07-11T15:30:40.866Z,3.93
2018-07-11T15:35:33.951Z,3.23
2018-07-11T15:40:27.082Z,4.57
2018-07-11T15:45:20.207Z,3.07
2018-07-11T15:50:13.437Z,4.03
2018-07-11T15:55:06.483Z,4.53
2018-07-11T16:00:07.392Z,4.87
2018-07-11T16:05:00.560Z,5.43
2018-07-11T16:09:56.163Z,5.30
2018-07-11T16:14:49.213Z,5.37
2018-07-11T16:19:42.368Z,3.83
2018-07-11T16:24:35.939Z,5.60
2018-07-11T16:29:29.167Z,6.40
2018-07-11T16:34:22.288Z,4.90
2018-07-11T16:39:15.771Z,4.80
2018-07-11T16:44:09.010Z,6.53
2018-07-11T16:49:02.019Z,4.93
2018-07-11T16:53:55.775Z,4.67
2018-07-11T16:58:53.014Z,3.70
2018-07-11T17:03:46.040Z,6.43
2018-07-11T17:08:48.953Z,6.23
2018-07-11T17:13:57.909Z,6.43
2018-07-11T17:19:00.085Z,4.17
2018-07-11T17:23:59.765Z,6.03
2018-07-11T17:28:53.741Z,4.73
2018-07-11T17:33:46.980Z,5.63
2018-07-11T17:38:40.071Z,5.13
2018-07-11T17:43:34.915Z,5.03
2018-07-11T17:48:44.538Z,3.10
2018-07-11T17:53:43.613Z,4.97
2018-07-11T17:58:58.812Z,8.07
2018-07-11T18:04:07.391Z,7.30
2018-07-11T18:09:06.716Z,6.93
2018-07-11T18:13:59.885Z,10.23
2018-07-11T18:19:24.811Z,5.67
2018-07-11T18:25:36.966Z,8.57
2018-07-11T18:32:51.376Z,6.93
2018-07-11T18:37:59.288Z,3.40
2018-07-11T18:45:14.488Z,4.53
2018-07-11T18:52:28.295Z,6.03
2018-07-11T18:57:33.643Z,4.47
2018-07-11T19:04:43.362Z,7.93
2018-07-11T19:09:50.380Z,5.07
2018-07-11T19:14:53.611Z,5.47
2018-07-11T19:20:00.557Z,4.90
2018-07-11T19:27:17.264Z,5.67
2018-07-11T19:32:43.630Z,6.57
2018-07-11T19:37:54.774Z,6.37
2018-07-11T19:43:13.827Z,9.13
2018-07-11T19:48:54.019Z,7.40
2018-07-11T19:54:00.324Z,6.10
2018-07-11T19:58:53.627Z,5.53
2018-07-11T20:03:46.689Z,7.03
2018-07-11T20:08:39.799Z,8.13
2018-07-11T20:13:32.832Z,5.60
2018-07-11T20:18:25.917Z,4.80
2018-07-11T20:23:19.007Z,7.07
2018-07-11T20:28:12.315Z,4.63
2018-07-11T20:33:05.592Z,5.67
2018-07-11T20:37:58.632Z,8.33
2018-07-11T20:42:51.932Z,5.07
2018-07-11T20:47:45.515Z,4.47
2018-07-11T20:52:38.523Z,4.97
2018-07-11T20:57:31.554Z,5.07
2018-07-11T21:02:41.859Z,7.83
2018-07-11T21:09:33.893Z,6.43
2018-07-11T21:15:01.875Z,6.10
2018-07-11T21:19:54.976Z,5.50
2018-07-11T21:24:48.186Z,5.40
2018-07-11T21:29:41.209Z,6.67
2018-07-11T21:34:34.239Z,6.13
2018-07-11T21:39:27.355Z,6.13
2018-07-11T21:44:20.508Z,4.70
2018-07-11T21:49:18.074Z,6.00
2018-07-11T21:54:11.102Z,5.30
2018-07-11T21:59:04.445Z,6.13
2018-07-11T22:03:57.616Z,5.67
2018-07-11T22:08:50.639Z,6.40
2018-07-11T22:13:43.630Z,8.43
2018-07-11T22:18:45.464Z,5.80
2018-07-11T22:23:36.973Z,6.00
2018-07-11T22:28:28.550Z,6.00
2018-07-11T22:33:20.044Z,6.97
2018-07-11T22:38:12.195Z,6.80
2018-07-11T22:43:03.925Z,7.50
2018-07-11T22:47:55.752Z,8.03
2018-07-11T22:52:47.216Z,7.87
2018-07-11T22:57:38.677Z,7.30
2018-07-11T23:02:30.223Z,7.93
2018-07-11T23:07:21.748Z,7.93
2018-07-11T23:12:13.501Z,8.30
2018-07-11T23:17:04.955Z,11.93
2018-07-11T23:21:56.793Z,8.00
2018-07-11T23:26:48.313Z,9.50
2018-07-11T23:31:40.118Z,7.67
2018-07-11T23:36:32.057Z,7.60
2018-07-11T23:41:23.632Z,9.13
2018-07-11T23:46:15.131Z,8.00
2018-07-11T23:51:06.675Z,8.00
2018-07-11T23:55:58.165Z,7.30
